Chignik Lagoon, AK (99565)

4:04 AM AKDT on August 31, 2014 (GMT -0800)
Chignik | Change Station
CLOSE
Current Station
Airport
Location: Chignik,
Elevation: 16 ft
Nearby Weather Stations

Elev 16 ft 56.31 °N, 158.37 °W | Updated 8 minutes ago

Clear
Clear
50 °F
Feels Like 50 °F
N
0
Wind Variable Wind from North

Today
High -- | Low -- °F
--% Chance of Precip.
Yesterday
High -- | Low -- °F
Precip. -- in
7:36 AM 9:30 PM
Waxing Crescent, 30% visible
Pressure 29.80 in
Visibility 10.0 miles
Clouds Clear
Dew Point 41 °F
Humidity 71%
Rainfall 0.00 in
Snow Depth Not available.
UV 0 out of 12
Pollen Not available.
Air Quality Not available.
Flu Activity Not available.
METAR PAJC 311156Z AUTO 00000KT 10SM CLR 10/05 A2980 RMK AO1 70041 10120 20090 52024

More Conditions Fewer Conditions

Pressure 29.80 in
Visibility 10.0 miles
Clouds Clear
Dew Point 41 °F
Humidity 71%
Rainfall 0.00 in
Snow Depth Not available.
UV 0 out of 12
Pollen Not available.
Air Quality Not available.
Flu Activity Not available.
METAR PAJC 311156Z AUTO 00000KT 10SM CLR 10/05 A2980 RMK AO1 70041 10120 20090 52024

More Conditions Fewer Conditions

10-Day Weather Forecast

Almanac

Astronomy

Aug. 31, 2014 Rise Set
Actual Time 7:36 AM AKDT 9:30 PM AKDT
Civil Twilight 6:56 AM AKDT 10:10 PM AKDT
Nautical Twilight 6:06 AM AKDT 10:59 PM AKDT
Astronomical Twilight 5:06 AM AKDT 11:58 PM AKDT
Moon 2:43 PM AKDT 11:42 PM AKDT
Length of Visible Light 15h 13m
Length of Day
13h 54m
Tomorrow will be 4m 34s shorter.
Waxing Crescent, 30% of the Moon is Illuminated
Today
Waxing Crescent
Sep 2
First Quarter
Sep 8
Full
Sep 15
Last Quarter
Sep 24
New

Today's Extremes

State Highs State Lows

Community

WunderPhotos

Upload Photos

1,748,853 photos uploaded!

Nearby

Snow Depth

Station Depth Elevation
Port Graham 0 in 300 ft
Mcneil Canyon 1 in 1320 ft
Nuka Glacier 164 in 1250 ft
MF Bradley River 3 in 2300 ft
Cooper Lake 21 in 1200 ft

Earthquake Activity

City Distance Mag. Time & Date
No recent earthquake activity has been reported nearby.
Minimum magnitude displayed is 2.5.

Coastal Water Temperatures

Place Temperature
No Stations Reporting

Nearby Weather Stations